createdAt,value
2022-11-30T00:01:00.926Z,25.28
2022-11-30T00:06:08.109Z,25.30
2022-11-30T00:11:15.271Z,25.31
2022-11-30T00:16:22.600Z,25.30
2022-11-30T00:21:29.711Z,25.32
2022-11-30T00:26:36.890Z,25.31
2022-11-30T00:31:44.124Z,25.30
2022-11-30T00:36:51.317Z,25.35
2022-11-30T00:41:58.505Z,25.32
2022-11-30T00:47:05.723Z,25.27
2022-11-30T00:52:12.919Z,25.16
2022-11-30T00:57:20.128Z,25.10
2022-11-30T01:02:27.495Z,25.04
2022-11-30T01:07:34.723Z,24.92
2022-11-30T01:12:41.821Z,24.84
2022-11-30T01:17:49.060Z,24.72
2022-11-30T01:22:56.265Z,24.63
2022-11-30T01:28:03.503Z,24.54
2022-11-30T01:33:10.726Z,24.43
2022-11-30T01:38:17.989Z,24.35
2022-11-30T01:43:25.180Z,24.28
2022-11-30T01:48:32.365Z,24.11
2022-11-30T01:53:39.612Z,23.94
2022-11-30T01:58:46.787Z,23.84
2022-11-30T02:03:53.973Z,23.74
2022-11-30T02:09:01.208Z,23.56
2022-11-30T02:14:08.390Z,23.40
2022-11-30T02:19:15.610Z,23.23
2022-11-30T02:24:22.787Z,23.13
2022-11-30T02:29:33.789Z,22.92
2022-11-30T02:34:41.020Z,22.80
2022-11-30T02:39:48.217Z,22.63
2022-11-30T02:44:55.442Z,22.46
2022-11-30T02:50:02.633Z,22.27
2022-11-30T02:55:09.919Z,22.13
2022-11-30T03:00:17.133Z,22.01
2022-11-30T03:05:24.385Z,21.90
2022-11-30T03:10:31.575Z,21.84
2022-11-30T03:15:38.808Z,21.74
2022-11-30T03:20:45.954Z,21.67
2022-11-30T03:25:53.153Z,21.53
2022-11-30T03:31:00.426Z,21.51
2022-11-30T03:36:07.551Z,21.45
2022-11-30T03:41:14.894Z,21.37
2022-11-30T03:46:22.136Z,21.33
2022-11-30T03:51:29.288Z,21.25
2022-11-30T03:56:36.491Z,21.16
2022-11-30T04:01:43.749Z,21.16
2022-11-30T04:06:50.840Z,21.09
2022-11-30T04:11:58.127Z,21.04
2022-11-30T04:17:05.260Z,20.99
2022-11-30T04:22:12.470Z,20.91
2022-11-30T04:27:19.722Z,20.89
2022-11-30T04:32:26.888Z,20.81
2022-11-30T04:37:34.116Z,20.77
2022-11-30T04:42:41.353Z,20.79
2022-11-30T04:47:48.572Z,20.73
2022-11-30T04:52:55.725Z,20.66
2022-11-30T04:58:02.967Z,20.66
2022-11-30T05:03:10.134Z,20.71
2022-11-30T05:08:17.338Z,20.66
2022-11-30T05:13:24.592Z,20.69
2022-11-30T05:18:31.774Z,20.65
2022-11-30T05:23:38.960Z,20.59
2022-11-30T05:28:46.181Z,20.59
2022-11-30T05:33:53.381Z,20.55
2022-11-30T05:39:00.582Z,20.50
2022-11-30T05:44:07.794Z,20.48
2022-11-30T05:49:14.991Z,20.41
2022-11-30T05:54:22.195Z,20.39
2022-11-30T05:59:29.467Z,20.40
2022-11-30T06:04:36.706Z,20.32
2022-11-30T06:09:43.905Z,20.30
2022-11-30T06:14:51.137Z,20.21
2022-11-30T06:19:58.300Z,20.22
2022-11-30T06:25:05.514Z,20.05
2022-11-30T06:30:12.710Z,20.03
2022-11-30T06:35:19.916Z,20.05
2022-11-30T06:40:27.234Z,20.04
2022-11-30T06:45:34.623Z,19.99
2022-11-30T06:50:46.882Z,19.96
2022-11-30T06:55:48.797Z,19.87
2022-11-30T07:00:56.145Z,19.79
2022-11-30T07:06:03.247Z,19.74
2022-11-30T07:11:10.455Z,19.67
2022-11-30T07:16:17.778Z,19.65
2022-11-30T07:21:24.887Z,19.60
2022-11-30T07:26:32.045Z,19.61
2022-11-30T07:31:39.372Z,19.61
2022-11-30T07:36:46.471Z,19.62
2022-11-30T07:41:53.633Z,19.62
2022-11-30T07:47:00.907Z,19.70
2022-11-30T07:52:08.076Z,20.07
2022-11-30T07:57:15.410Z,20.26
2022-11-30T08:02:22.672Z,20.39
2022-11-30T08:07:29.781Z,20.51
2022-11-30T08:12:36.915Z,20.64
2022-11-30T08:17:44.160Z,20.76
2022-11-30T08:22:51.314Z,20.83
2022-11-30T08:27:58.935Z,20.87
2022-11-30T08:33:06.170Z,20.91
2022-11-30T08:38:13.355Z,20.95
2022-11-30T08:43:20.599Z,20.95
2022-11-30T08:48:27.851Z,20.95
2022-11-30T08:53:35.084Z,20.95
2022-11-30T08:58:42.376Z,20.94
2022-11-30T09:03:49.555Z,20.93
2022-11-30T09:08:56.814Z,20.89
2022-11-30T09:14:03.989Z,20.86
2022-11-30T09:19:11.234Z,20.76
2022-11-30T09:24:18.387Z,20.68
2022-11-30T09:29:28.648Z,20.58
2022-11-30T09:34:35.926Z,20.41
2022-11-30T09:39:43.070Z,20.31
2022-11-30T09:44:50.623Z,20.27
2022-11-30T09:49:57.544Z,20.04
2022-11-30T09:55:04.707Z,20.13
2022-11-30T10:00:11.909Z,20.33
2022-11-30T10:05:19.129Z,20.41
2022-11-30T10:10:34.050Z,20.48
2022-11-30T10:15:33.657Z,20.53
2022-11-30T10:20:40.838Z,20.58
2022-11-30T10:25:47.994Z,20.57
2022-11-30T10:30:55.262Z,20.56
2022-11-30T10:36:02.509Z,20.54
2022-11-30T10:41:09.700Z,20.54
2022-11-30T10:46:17.290Z,20.50
2022-11-30T10:51:24.029Z,20.31
2022-11-30T10:56:31.155Z,20.34
2022-11-30T11:01:38.472Z,20.24
2022-11-30T11:06:45.607Z,20.18
2022-11-30T11:11:52.765Z,20.00
2022-11-30T11:16:59.995Z,19.69
2022-11-30T11:22:07.189Z,19.71
2022-11-30T11:27:14.343Z,19.35
2022-11-30T11:32:21.529Z,19.71
2022-11-30T11:37:28.769Z,19.70
2022-11-30T11:42:36.044Z,19.83
2022-11-30T11:47:43.274Z,19.96
2022-11-30T11:52:50.565Z,20.07
2022-11-30T11:57:57.781Z,20.10
2022-11-30T12:03:05.105Z,20.13
2022-11-30T12:08:12.265Z,20.10
2022-11-30T12:13:19.423Z,20.05
2022-11-30T12:18:26.622Z,20.04
2022-11-30T12:23:33.806Z,20.05
2022-11-30T12:28:40.949Z,19.97
2022-11-30T12:33:48.206Z,20.01
2022-11-30T12:38:55.415Z,19.95
2022-11-30T12:44:02.562Z,20.00
2022-11-30T12:49:09.909Z,19.83
2022-11-30T12:54:17.084Z,19.83
2022-11-30T12:59:24.355Z,19.76
2022-11-30T13:04:31.580Z,19.85
2022-11-30T13:09:38.794Z,19.82
2022-11-30T13:14:46.355Z,19.89
2022-11-30T13:19:53.173Z,19.98
2022-11-30T13:25:00.429Z,20.09
2022-11-30T13:30:07.593Z,20.18
2022-11-30T13:35:14.793Z,20.20
2022-11-30T13:40:22.044Z,20.24
2022-11-30T13:45:29.274Z,20.28
2022-11-30T13:50:36.411Z,20.25
2022-11-30T13:55:43.672Z,20.25
2022-11-30T14:00:50.857Z,20.17
2022-11-30T14:05:58.033Z,20.07
2022-11-30T14:11:05.247Z,20.06
2022-11-30T14:16:12.460Z,20.05
2022-11-30T14:21:19.628Z,19.99
2022-11-30T14:26:26.867Z,19.92
2022-11-30T14:31:34.102Z,19.95
2022-11-30T14:36:41.141Z,19.95
2022-11-30T14:41:48.379Z,19.95
2022-11-30T14:46:55.682Z,19.92
2022-11-30T14:52:02.764Z,19.91
2022-11-30T14:57:10.091Z,19.88
2022-11-30T15:02:17.238Z,19.96
2022-11-30T15:07:24.354Z,20.04
2022-11-30T15:12:31.540Z,20.14
2022-11-30T15:17:38.690Z,20.19
2022-11-30T15:22:45.888Z,20.20
2022-11-30T15:27:53.202Z,20.18
2022-11-30T15:33:00.308Z,20.20
2022-11-30T15:38:07.495Z,20.18
2022-11-30T15:43:14.755Z,20.17
2022-11-30T15:48:21.940Z,20.15
2022-11-30T15:53:29.205Z,20.12
2022-11-30T15:58:36.649Z,20.12
2022-11-30T16:03:44.145Z,20.10
2022-11-30T16:08:51.447Z,20.04
2022-11-30T16:13:58.680Z,20.04
2022-11-30T16:19:05.860Z,19.95
2022-11-30T16:24:13.360Z,19.95
2022-11-30T16:29:20.812Z,19.85
2022-11-30T16:34:27.969Z,19.88
2022-11-30T16:39:35.281Z,19.79
2022-11-30T16:44:42.926Z,19.83
2022-11-30T16:49:50.522Z,19.83
2022-11-30T16:54:57.836Z,19.90
2022-11-30T17:00:05.719Z,19.98
2022-11-30T17:05:12.904Z,20.06
2022-11-30T17:10:20.359Z,20.13
2022-11-30T17:15:27.769Z,20.17
2022-11-30T17:20:35.170Z,20.17
2022-11-30T17:25:42.492Z,20.16
2022-11-30T17:30:49.855Z,20.15
2022-11-30T17:35:58.729Z,20.12
2022-11-30T17:41:06.119Z,20.05
2022-11-30T17:46:13.416Z,20.06
2022-11-30T17:51:20.909Z,20.04
2022-11-30T17:56:28.215Z,20.01
2022-11-30T18:01:35.811Z,19.95
2022-11-30T18:06:43.291Z,19.91
2022-11-30T18:11:51.415Z,19.85
2022-11-30T18:16:58.895Z,19.81
2022-11-30T18:22:06.438Z,19.72
2022-11-30T18:27:14.049Z,19.76
2022-11-30T18:32:21.704Z,19.74
2022-11-30T18:37:29.394Z,19.80
2022-11-30T18:42:37.001Z,19.83
2022-11-30T18:47:44.373Z,19.90
2022-11-30T18:52:51.922Z,19.94
2022-11-30T18:57:59.529Z,19.97
2022-11-30T19:03:07.343Z,20.01
2022-11-30T19:08:14.862Z,20.00
2022-11-30T19:13:22.476Z,19.99
2022-11-30T19:18:30.221Z,20.02
2022-11-30T19:23:37.820Z,20.00
2022-11-30T19:28:45.305Z,20.02
2022-11-30T19:33:53.775Z,20.09
2022-11-30T19:39:01.368Z,20.36
2022-11-30T19:44:09.084Z,20.64
2022-11-30T19:49:17.230Z,20.91
2022-11-30T19:54:24.532Z,21.09
2022-11-30T19:59:32.137Z,21.28
2022-11-30T20:04:39.876Z,21.43
2022-11-30T20:09:48.070Z,21.61
2022-11-30T20:14:55.436Z,21.73
2022-11-30T20:20:03.033Z,21.84
2022-11-30T20:25:10.612Z,21.98
2022-11-30T20:30:18.233Z,22.12
2022-11-30T20:35:26.370Z,22.23
2022-11-30T20:40:33.765Z,22.33
2022-11-30T20:45:41.391Z,22.46
2022-11-30T20:51:21.692Z,22.52
2022-11-30T20:55:56.603Z,22.64
2022-11-30T21:01:04.195Z,22.73
2022-11-30T21:06:12.831Z,22.73
2022-11-30T21:11:20.500Z,22.79
2022-11-30T21:16:29.141Z,22.94
2022-11-30T21:21:35.044Z,23.07
2022-11-30T21:26:42.185Z,23.16
2022-11-30T21:31:49.336Z,23.28
2022-11-30T21:36:56.536Z,23.36
2022-11-30T21:42:03.706Z,23.41
2022-11-30T21:47:10.909Z,23.46
2022-11-30T21:52:18.137Z,23.51
2022-11-30T21:57:25.320Z,23.53
2022-11-30T22:02:32.568Z,23.67
2022-11-30T22:07:39.778Z,23.69
2022-11-30T22:12:46.961Z,23.76
2022-11-30T22:17:54.152Z,23.83
2022-11-30T22:23:01.403Z,23.88
2022-11-30T22:28:08.626Z,23.92
2022-11-30T22:33:15.891Z,24.01
2022-11-30T22:38:23.086Z,24.03
2022-11-30T22:43:30.307Z,24.04
2022-11-30T22:48:37.488Z,24.12
2022-11-30T22:53:44.764Z,24.17
2022-11-30T22:58:51.980Z,24.21
2022-11-30T23:03:59.253Z,24.26
2022-11-30T23:09:06.350Z,24.28
2022-11-30T23:14:13.537Z,24.30
2022-11-30T23:19:20.699Z,24.32
2022-11-30T23:24:27.920Z,24.28
2022-11-30T23:29:35.103Z,24.30
2022-11-30T23:34:43.503Z,24.38
2022-11-30T23:39:49.843Z,24.38
2022-11-30T23:44:56.739Z,24.44
2022-11-30T23:50:03.921Z,24.50
2022-11-30T23:55:11.180Z,24.51
